createdAt,value
2019-02-08T00:01:45.109Z,31.37
2019-02-08T00:04:11.444Z,31.49
2019-02-08T00:06:37.813Z,31.38
2019-02-08T00:09:04.182Z,31.39
2019-02-08T00:11:30.512Z,31.44
2019-02-08T00:13:56.842Z,31.40
2019-02-08T00:16:23.250Z,31.46
2019-02-08T00:18:49.581Z,31.48
2019-02-08T00:21:16.121Z,31.47
2019-02-08T00:23:42.454Z,31.49
2019-02-08T00:26:08.777Z,31.48
2019-02-08T00:28:35.114Z,31.48
2019-02-08T00:31:01.444Z,31.60
2019-02-08T00:33:27.768Z,31.56
2019-02-08T00:35:54.140Z,31.60
2019-02-08T00:38:20.466Z,31.55
2019-02-08T00:40:46.828Z,31.59
2019-02-08T00:43:13.158Z,31.61
2019-02-08T00:45:39.502Z,31.68
2019-02-08T00:48:05.841Z,31.60
2019-02-08T00:50:32.184Z,31.80
2019-02-08T00:52:58.567Z,31.70
2019-02-08T00:55:24.912Z,31.62
2019-02-08T00:57:51.227Z,31.69
2019-02-08T01:00:17.557Z,31.70
2019-02-08T01:02:43.916Z,31.70
2019-02-08T01:05:10.241Z,31.55
2019-02-08T01:07:36.569Z,31.10
2019-02-08T01:10:02.904Z,31.12
2019-02-08T01:12:29.301Z,30.91
2019-02-08T01:14:55.694Z,31.01
2019-02-08T01:17:22.014Z,30.82
2019-02-08T01:19:48.379Z,30.84
2019-02-08T01:22:14.748Z,30.69
2019-02-08T01:24:41.172Z,30.78
2019-02-08T01:27:07.479Z,30.70
2019-02-08T01:29:33.854Z,30.68
2019-02-08T01:32:00.184Z,30.67
2019-02-08T01:34:26.516Z,30.59
2019-02-08T01:36:52.838Z,30.48
2019-02-08T01:39:19.171Z,30.44
2019-02-08T01:41:45.606Z,30.43
2019-02-08T01:44:11.976Z,30.49
2019-02-08T01:46:38.390Z,30.48
2019-02-08T01:49:04.689Z,30.33
2019-02-08T01:51:31.025Z,30.30
2019-02-08T01:53:57.389Z,30.21
2019-02-08T01:56:23.720Z,30.20
2019-02-08T01:58:50.039Z,30.18
2019-02-08T02:01:16.373Z,30.10
2019-02-08T02:03:42.693Z,30.26
2019-02-08T02:06:09.056Z,30.18
2019-02-08T02:08:35.379Z,30.17
2019-02-08T02:11:01.706Z,30.09
2019-02-08T02:13:28.033Z,29.93
2019-02-08T02:15:54.377Z,30.09
2019-02-08T02:18:20.703Z,30.12
2019-02-08T02:20:47.052Z,30.07
2019-02-08T02:23:13.505Z,30.11
2019-02-08T02:25:39.820Z,30.05
2019-02-08T02:28:06.162Z,30.05
2019-02-08T02:30:32.499Z,29.97
2019-02-08T02:32:58.844Z,29.96
2019-02-08T02:35:25.155Z,29.89
2019-02-08T02:37:51.548Z,29.88
2019-02-08T02:40:17.880Z,29.77
2019-02-08T02:42:44.226Z,29.76
2019-02-08T02:45:10.570Z,29.71
2019-02-08T02:47:36.911Z,29.67
2019-02-08T02:50:03.239Z,29.61
2019-02-08T02:52:29.589Z,29.59
2019-02-08T02:54:55.920Z,29.61
2019-02-08T02:57:22.257Z,29.52
2019-02-08T02:59:48.603Z,29.54
2019-02-08T03:02:14.918Z,29.58
2019-02-08T03:04:41.247Z,29.58
2019-02-08T03:07:07.575Z,29.47
2019-02-08T03:09:33.917Z,29.47
2019-02-08T03:12:00.296Z,29.42
2019-02-08T03:14:26.660Z,29.45
2019-02-08T03:16:52.991Z,29.42
2019-02-08T03:19:19.334Z,29.32
2019-02-08T03:21:45.660Z,29.29
2019-02-08T03:24:13.160Z,29.32
2019-02-08T03:26:38.354Z,29.35
2019-02-08T03:29:04.840Z,29.36
2019-02-08T03:31:31.192Z,29.42
2019-02-08T03:33:57.493Z,29.31
2019-02-08T03:36:23.866Z,29.27
2019-02-08T03:38:50.193Z,29.29
2019-02-08T03:41:16.523Z,29.32
2019-02-08T03:43:42.875Z,29.41
2019-02-08T03:46:09.205Z,29.36
2019-02-08T03:48:35.590Z,29.34
2019-02-08T03:51:01.945Z,29.30
2019-02-08T03:53:28.327Z,29.35
2019-02-08T03:55:58.505Z,29.27
2019-02-08T03:58:20.965Z,29.29
2019-02-08T04:00:47.293Z,29.19
2019-02-08T04:03:13.630Z,29.24
2019-02-08T04:05:39.962Z,29.17
2019-02-08T04:08:06.303Z,29.20
2019-02-08T04:10:32.652Z,29.12
2019-02-08T04:12:58.982Z,29.05
2019-02-08T04:15:25.365Z,29.04
2019-02-08T04:17:51.722Z,28.92
2019-02-08T04:20:18.077Z,28.87
2019-02-08T04:22:44.422Z,28.81
2019-02-08T04:25:10.778Z,28.79
2019-02-08T04:27:37.108Z,28.71
2019-02-08T04:30:03.440Z,28.66
2019-02-08T04:32:29.793Z,28.70
2019-02-08T04:34:56.178Z,29.63
2019-02-08T04:37:22.517Z,29.32
2019-02-08T04:39:48.854Z,28.83
2019-02-08T04:42:15.401Z,28.87
2019-02-08T04:47:15.619Z,29.16
2019-02-08T04:49:41.938Z,29.20
2019-02-08T04:52:08.272Z,29.29
2019-02-08T04:54:38.394Z,28.90
2019-02-08T04:57:00.940Z,28.64
2019-02-08T04:59:27.266Z,28.92
2019-02-08T05:01:53.596Z,28.49
2019-02-08T05:04:19.984Z,28.38
2019-02-08T05:06:46.374Z,28.33
2019-02-08T05:09:12.719Z,28.27
2019-02-08T05:11:39.066Z,28.32
2019-02-08T05:14:05.399Z,28.38
2019-02-08T05:16:31.893Z,28.37
2019-02-08T05:18:58.221Z,28.46
2019-02-08T05:21:24.581Z,28.48
2019-02-08T05:23:50.881Z,28.41
2019-02-08T05:26:17.237Z,28.48
2019-02-08T05:28:43.587Z,28.46
2019-02-08T05:31:09.916Z,28.54
2019-02-08T05:33:36.259Z,28.51
2019-02-08T05:36:02.666Z,28.46
2019-02-08T05:38:29.030Z,28.75
2019-02-08T05:40:55.439Z,28.81
2019-02-08T05:43:21.708Z,28.64
2019-02-08T05:45:48.040Z,28.81
2019-02-08T05:48:14.373Z,28.90
2019-02-08T05:50:40.700Z,29.10
